• Join FlightAware (Why Join?)
  • Login
  • US Flag 
 
10:46PM EST


 

Airport Tracker/Info


-or-


 

Live Flight TrackerFlight Track Log ✈ AWE710 ✈ 13-Apr-2013 ✈ KPHL - LSZH / ZRH

Flight Track Log - Related Links

Times and Time Zones

All times are in EDT time to prevent confusion due to time zone crossing. See the AWE710 flight status page for this flight to view local times or setup timezone preferences in your user account.

Time Position Orientation Groundspeed Altitude Reporting Facility
EDT Latitude Longitude Course Direction KTS MPH feet Rate Location/Type
07:09PM 39.8409 -75.2900 221° Southwest 175 201 1,200  Level FlightAware ADS-B
07:09PM 39.8289 -75.3032 220° Southwest 198 228 1,600 1,380 Climbing FlightAware ADS-B
07:09PM 39.8174 -75.3156 220° Southwest 216 249 2,000 1,920 Climbing FlightAware ADS-B
07:09PM 39.8045 -75.3288 218° Southwest 225 259 2,600 1,800 Climbing FlightAware ADS-B
07:10PM 39.7897 -75.3439 218° Southwest 247 284 3,000 1,980 Climbing FlightAware ADS-B
07:10PM 39.7749 -75.3578 216° Southwest 255 293 3,700 2,520 Climbing FlightAware ADS-B
07:10PM 39.7712 -75.3602 206° Southwest 259 298 3,800 2,640 Climbing FlightAware ADS-B
07:10PM 39.7645 -75.3628 197° South 261 300 4,100 2,400 Climbing FlightAware ADS-B
07:10PM 39.7602 -75.3636 188° South 263 303 4,200 3,000 Climbing FlightAware ADS-B
07:10PM 39.7545 -75.3638 182° South 263 303 4,500 3,720 Climbing FlightAware ADS-B
07:10PM 39.7499 -75.3632 174° South 263 303 4,700 3,420 Climbing FlightAware ADS-B
07:10PM 39.7461 -75.3623 170° South 264 304 4,900 3,000 Climbing FlightAware ADS-B
07:10PM 39.7423 -75.3607 162° South 266 306 5,000 2,220 Climbing FlightAware ADS-B
07:11PM 39.7375 -75.3582 158° South 268 308 5,200 2,400 Climbing FlightAware ADS-B
07:11PM 39.7267 -75.3484 145° Southeast 277 319 5,600 2,280 Climbing FlightAware ADS-B
07:11PM 39.7238 -75.3444 133° Southeast 280 322 5,700 2,400 Climbing FlightAware ADS-B
07:11PM 39.7192 -75.3362 126° Southeast 286 329 6,000 2,160 Climbing FlightAware ADS-B
07:11PM 39.7163 -75.3285 116° Southeast 289 333 6,100 2,400 Climbing FlightAware ADS-B
07:11PM 39.7137 -75.3193 110° East 293 337 6,400 3,000 Climbing FlightAware ADS-B
07:11PM 39.7126 -75.3116 101° East 295 339 6,600 2,640 Climbing FlightAware ADS-B
07:11PM 39.7121 -75.3032 94° East 297 342 6,800 2,220 Climbing FlightAware ADS-B
07:11PM 39.7123 -75.2977 87° East 300 345 6,900 1,500 Climbing FlightAware ADS-B
07:11PM 39.7133 -75.2885 82° East 303 349 7,000 2,160 Climbing FlightAware ADS-B
07:12PM 39.7195 -75.2598 74° East 310 357 7,700 2,700 Climbing FlightAware ADS-B
07:12PM 39.7209 -75.2533 74° East 310 357 7,900 3,000 Climbing FlightAware ADS-B
07:12PM 39.7247 -75.2291 78° East 315 362 8,500 2,040 Climbing FlightAware ADS-B
07:12PM 39.7281 -75.1999 81° East 330 380 8,900 1,980 Climbing FlightAware ADS-B
07:12PM 39.7321 -75.1659 81° East 336 387 9,600 2,160 Climbing FlightAware ADS-B
07:13PM 39.7389 -75.0972 83° East 357 411 10,700 1,380 Climbing FlightAware ADS-B
07:13PM 39.7454 -75.0289 83° East 402 463 11,100 1,080 Climbing FlightAware ADS-B
07:14PM 39.7535 -74.9536 82° East 436 502 11,800 780 Climbing FlightAware ADS-B
07:15PM 39.7647 -74.8621 81° East 447 514 12,000 360 Climbing FlightAware ADS-B
07:15PM 39.7746 -74.7795 81° East 439 505 12,200 1,260 Climbing FlightAware ADS-B
07:16PM 39.7870 -74.6740 81° East 448 516 13,600 2,160 Climbing FlightAware
07:16PM 39.7882 -74.6603 83° East 451 519 13,900 2,640 Climbing FlightAware ADS-B
07:16PM 39.7939 -74.5733 85° East 461 531 15,200 2,400 Climbing FlightAware ADS-B
07:17PM 39.8002 -74.4796 85° East 476 548 16,500 2,400 Climbing FlightAware ADS-B
07:17PM 39.8035 -74.3996 87° East 483 556 17,700 2,460 Climbing FlightAware ADS-B
07:18PM 39.8040 -74.3109 90° East 489 563 18,900 2,160 Climbing FlightAware ADS-B
07:18PM 39.8042 -74.2211 90° East 499 574 19,900 1,920 Climbing FlightAware ADS-B
07:19PM 39.8047 -74.2006 88° East 505 581 20,100 1,980 Climbing FlightAware ADS-B
07:19PM 39.8064 -74.1734 85° East 509 586 20,400 1,980 Climbing FlightAware ADS-B
07:19PM 39.8285 -74.0585 76° East 522 601 21,700 2,040 Climbing FlightAware ADS-B
07:20PM 39.8483 -74.0031 65° Northeast 525 604 22,400 1,800 Climbing FlightAware ADS-B
07:20PM 39.8847 -73.9062 64° Northeast 541 623 23,300 1,680 Climbing FlightAware ADS-B
07:21PM 39.9170 -73.8210 64° Northeast 550 633 24,200 1,740 Climbing FlightAware
07:21PM 39.9214 -73.8082 66° East 551 634 24,300 1,500 Climbing FlightAware ADS-B
07:21PM 39.9585 -73.7099 64° Northeast 564 649 25,100 1,620 Climbing FlightAware ADS-B
07:22PM 39.9932 -73.6179 64° Northeast 571 657 26,000 1,680 Climbing FlightAware ADS-B
07:22PM 40.0312 -73.5166 64° Northeast 577 664 26,900 1,980 Climbing FlightAware ADS-B
07:23PM 40.0694 -73.4148 64° Northeast 575 662 28,200 2,280 Climbing FlightAware ADS-B
07:23PM 40.1047 -73.3197 64° Northeast 572 658 29,300 2,160 Climbing FlightAware ADS-B
07:24PM 40.1394 -73.2263 64° Northeast 568 654 30,400 1,980 Climbing FlightAware ADS-B
07:24PM 40.1737 -73.1338 64° Northeast 568 654 31,300 1,620 Climbing FlightAware ADS-B
07:25PM 40.2091 -73.0378 64° Northeast 569 655 32,100 1,440 Climbing FlightAware ADS-B
07:25PM 40.2477 -72.9331 64° Northeast 570 656 32,900 1,260 Climbing FlightAware ADS-B
07:26PM 40.2832 -72.8359 64° Northeast 577 664 33,500 1,620 Climbing FlightAware ADS-B
07:27PM 40.3250 -72.7218 64° Northeast 567 652 34,800 1,860 Climbing FlightAware ADS-B
07:27PM 40.3681 -72.6028 65° Northeast 559 643 35,900 960 Climbing FlightAware ADS-B
07:28PM 40.4068 -72.4957 65° Northeast 568 654 36,000 60 Climbing FlightAware ADS-B
07:28PM 40.4431 -72.3946 65° Northeast 569 655 36,000  Level FlightAware ADS-B
07:29PM 40.4841 -72.2806 65° Northeast 568 654 36,000  Level FlightAware ADS-B
07:29PM 40.5179 -72.1862 65° Northeast 564 649 36,000  Level FlightAware ADS-B
07:30PM 40.5711 -72.0370 65° Northeast 559 643 36,000  Level FlightAware ADS-B
07:31PM 40.6050 -71.9419 65° Northeast 557 641 36,000  Level FlightAware ADS-B
07:32PM 40.6720 -71.7530 65° Northeast 555 639 36,000  Level FlightAware
07:32PM 40.6906 -71.6994 65° Northeast 556 640 36,000  Level FlightAware ADS-B
07:33PM 40.7190 -71.6180 65° Northeast 557 641 36,000  Level FlightAware
07:33PM 40.7673 -71.4798 65° Northeast 562 647 36,000  Level FlightAware ADS-B
07:34PM 40.8040 -71.3740 65° Northeast 562 647 36,000  Level FlightAware
07:35PM 40.8590 -71.2220 64° Northeast 566 651 36,000  Level FlightAware
07:35PM 40.8834 -71.1602 62° Northeast 568 654 36,000  Level FlightAware ADS-B
07:36PM 40.9160 -71.0810 61° Northeast 565 650 36,000  Level FlightAware
07:37PM 40.9930 -70.9050 60° Northeast 567 652 36,000  Level FlightAware
07:37PM 41.0520 -70.7690 60° Northeast 572 658 36,000  Level FlightAware
07:38PM 41.1070 -70.6460 59° Northeast 572 658 36,000  Level FlightAware
07:39PM 41.1530 -70.5410 60° Northeast 570 656 36,000  Level FlightAware
07:40PM 41.2260 -70.3750 60° Northeast 566 651 36,000  Level FlightAware
07:40PM 41.2840 -70.2420 60° Northeast 564 649 36,000  Level FlightAware
07:41PM 41.3360 -70.1210 60° Northeast 560 644 36,000  Level FlightAware
07:42PM 41.3990 -69.9750 60° Northeast 559 643 36,000  Level FlightAware
07:42PM 41.4530 -69.8490 60° Northeast 558 642 36,000  Level FlightAware
07:43PM 41.5030 -69.7320 60° Northeast 556 640 36,000  Level FlightAware
07:44PM 41.5530 -69.6140 60° Northeast 556 640 36,000  Level FlightAware
07:44PM 41.6060 -69.4890 60° Northeast 555 639 36,000  Level FlightAware
07:45PM 41.6640 -69.3510 61° Northeast 556 640 36,000  Level FlightAware
07:46PM 41.7150 -69.2300 61° Northeast 558 642 36,000  Level FlightAware
07:47PM 41.7700 -69.0990 61° Northeast 559 643 36,000  Level FlightAware
07:47PM 41.8150 -68.9910 61° Northeast 560 644 36,000  Level FlightAware
07:48PM 41.8790 -68.8380 61° Northeast 561 646 36,000  Level FlightAware
07:49PM 41.9350 -68.7020 61° Northeast 562 647 36,000  Level FlightAware
07:49PM 41.9840 -68.5800 62° Northeast 559 643 36,000  Level FlightAware
07:50PM 42.0360 -68.4540 61° Northeast 559 643 36,000  Level FlightAware
07:51PM 42.1110 -68.2680 61° Northeast 559 643 36,000  Level FlightAware
07:52PM 42.1620 -68.1440 61° Northeast 560 644 36,000  Level FlightAware
07:52PM 42.2120 -68.0180 62° Northeast 560 644 36,000  Level FlightAware
07:53PM 42.2600 -67.9000 61° Northeast 560 644 36,000  Level FlightAware
07:54PM 42.3040 -67.7890 62° Northeast 560 644 36,000  Level FlightAware
07:55PM 42.3690 -67.6250 62° Northeast 560 644 36,000  Level FlightAware
07:55PM 42.4210 -67.4940 62° Northeast 560 644 36,000  Level FlightAware
07:56PM 42.4620 -67.3880 62° Northeast 560 644 36,000  Level FlightAware
07:57PM 42.5040 -67.2830 61° Northeast 560 644 36,000  Level FlightAware
07:57PM 42.5450 -67.1770 62° Northeast 560 644 36,000  Level FlightAware
07:58PM 42.5860 -67.0720 62° Northeast 560 644 36,000  Level FlightAware
07:59PM 42.6380 -66.9400 62° Northeast 560 644 36,000  Level FlightAware
08:00PM 42.6790 -66.8340 62° Northeast 560 644 36,000  Level FlightAware
08:00PM 42.7520 -66.5190 72° East 559 643 36,000  Level FlightAware
08:01PM 42.7880 -66.3860 70° East 558 642 36,000  Level FlightAware
08:02PM 42.8240 -66.2560 69° East 558 642 36,000  Level FlightAware
08:02PM 42.8640 -66.1090 70° East 558 642 36,000  Level FlightAware
08:03PM 42.9000 -65.9760 70° East 554 638 36,000  Level FlightAware
08:04PM 42.9390 -65.8280 70° East 553 636 36,000  Level FlightAware
08:05PM 42.9740 -65.6940 70° East 552 635 36,000  Level FlightAware
08:05PM 43.0080 -65.5650 70° East 554 638 36,000  Level FlightAware
08:06PM 43.0480 -65.4140 70° East 552 635 36,000  Level FlightAware
08:07PM 43.0820 -65.2830 70° East 553 636 36,000  Level FlightAware
08:07PM 43.1160 -65.1530 70° East 554 638 36,000  Level FlightAware
08:08PM 43.1550 -65.0030 70° East 553 636 36,000  Level FlightAware
08:09PM 43.1900 -64.8680 70° East 553 636 36,000  Level FlightAware
08:09PM 43.2290 -64.7170 70° East 554 638 36,000  Level FlightAware
08:10PM 43.2630 -64.5840 71° East 554 638 36,000  Level FlightAware
08:11PM 43.3010 -64.4370 70° East 555 639 36,000  Level FlightAware
08:12PM 43.3300 -64.3190 71° East 555 639 36,000  Level FlightAware
08:12PM 43.3590 -64.2050 71° East 555 639 36,000  Level FlightAware
08:13PM 43.3870 -64.0920 71° East 555 639 36,000  Level FlightAware
08:14PM 43.4160 -63.9780 71° East 555 639 36,000  Level FlightAware
08:14PM 43.4510 -63.8360 71° East 555 639 36,000  Level FlightAware
08:15PM 43.4800 -63.7220 71° East 555 639 36,000  Level FlightAware
08:16PM 43.5080 -63.6090 71° East 555 639 36,000  Level FlightAware
08:16PM 43.5360 -63.4950 71° East 555 639 36,000  Level FlightAware
08:17PM 43.5650 -63.3810 71° East 555 639 36,000  Level FlightAware
08:18PM 43.5930 -63.2670 71° East 555 639 36,000  Level FlightAware
08:19PM 43.6290 -63.1240 71° East 555 639 36,000  Level FlightAware
08:19PM 43.6570 -63.0100 71° East 555 639 36,000  Level FlightAware
08:20PM 43.6860 -62.8960 71° East 555 639 36,000  Level FlightAware
08:21PM 43.7140 -62.7820 71° East 555 639 36,000  Level FlightAware
08:21PM 43.8000 -62.3667 71° East 550 633 36,000  Level Gander Center
08:21PM 43.8000 -62.3000 90° East 550 633 36,000  Level Gander Center
08:22PM 43.8500 -62.1167 69° East 550 633 36,000  Level Gander Center
08:23PM 43.9167 -61.9000 67° East 550 633 36,000  Level Gander Center
08:24PM 43.9500 -61.7000 77° East 550 633 36,000  Level Gander Center
08:25PM 44.0000 -61.4833 72° East 550 633 36,000  Level Gander Center
08:26PM 44.0500 -61.3000 69° East 550 633 36,000  Level Gander Center
08:27PM 44.0833 -61.1000 77° East 550 633 36,000  Level Gander Center
08:28PM 44.1333 -60.8833 72° East 550 633 36,000  Level Gander Center
08:29PM 44.1833 -60.6833 71° East 550 633 36,000  Level Gander Center
08:30PM 44.2000 -60.4667 84° East 550 633 36,000  Level Gander Center
08:31PM 44.2500 -60.2833 69° East 550 633 36,000  Level Gander Center
08:32PM 44.3000 -60.0500 73° East 550 633 36,000  Level Gander Center
08:33PM 44.3500 -59.8667 69° East 560 644 36,000  Level Gander Center
08:34PM 44.3833 -59.6333 79° East 560 644 36,000  Level Gander Center
08:35PM 44.4333 -59.4333 71° East 560 644 36,000  Level Gander Center
08:36PM 44.4667 -59.2000 79° East 560 644 36,000  Level Gander Center
08:37PM 44.5167 -59.0167 69° East 560 644 36,000  Level Gander Center
08:38PM 44.5500 -58.8000 78° East 560 644 36,000  Level Gander Center
08:39PM 44.6000 -58.5833 72° East 560 644 36,000  Level Gander Center
08:40PM 44.6333 -58.3833 77° East 560 644 36,000  Level Gander Center
08:41PM 44.6833 -58.1667 72° East 560 644 36,000  Level Gander Center
08:42PM 44.7167 -57.9833 76° East 550 633 36,000  Level Gander Center
08:43PM 44.7500 -57.7333 79° East 550 633 36,000  Level Gander Center
08:44PM 44.7833 -57.5500 76° East 550 633 36,000  Level Gander Center
08:45PM 44.8167 -57.3333 78° East 540 621 36,000  Level Gander Center
08:47PM 44.8667 -57.1000 73° East 540 621 36,000  Level Moncton Center
08:47PM 44.9000 -56.9333 74° East 540 621 36,000  Level Gander Center
08:48PM 44.9333 -56.7333 77° East 530 610 36,000  Level Gander Center
08:49PM 44.9667 -56.5167 78° East 540 621 36,000  Level Gander Center
08:50PM 45.0167 -56.3000 72° East 540 621 36,000  Level Gander Center
08:51PM 45.0333 -56.1167 83° East 540 621 36,000  Level Gander Center
08:52PM 45.0833 -55.9000 72° East 550 633 36,000  Level Gander Center
08:53PM 45.1000 -55.6833 84° East 550 633 36,000  Level Gander Center
08:54PM 45.1333 -55.4833 77° East 550 633 36,000  Level Gander Center
09:00PM 45.3160 -54.3170 77° East 542 624 36,000  Level FlightAware
09:01PM 45.3400 -54.1510 78° East 545 627 36,000  Level FlightAware
09:02PM 45.3580 -54.0320 78° East 545 627 36,000  Level FlightAware
09:02PM 45.3800 -53.8830 78° East 545 627 36,000  Level FlightAware
09:03PM 45.3980 -53.7630 78° East 545 627 36,000  Level FlightAware
09:04PM 45.4160 -53.6440 78° East 545 627 36,000  Level FlightAware
09:04PM 45.4340 -53.5240 78° East 545 627 36,000  Level FlightAware
09:05PM 45.4520 -53.4050 78° East 545 627 36,000  Level FlightAware
09:06PM 45.4740 -53.2550 78° East 545 627 36,000  Level FlightAware
09:07PM 45.4920 -53.1360 78° East 545 627 36,000  Level FlightAware
09:07PM 45.5090 -53.0160 79° East 545 627 36,000  Level FlightAware
09:08PM 45.5270 -52.8960 78° East 545 627 36,000  Level FlightAware
09:09PM 45.5450 -52.7770 78° East 545 627 36,000  Level FlightAware
09:09PM 45.5670 -52.6270 78° East 545 627 36,000  Level FlightAware
09:10PM 45.5850 -52.5070 78° East 545 627 36,000  Level FlightAware
09:10PM 45.6333 -52.1167 78° East 530 610 36,000  Level Gander Center
09:11PM 45.6500 -51.8833 84° East 530 610 36,000  Level Gander Center
09:12PM 45.6833 -51.7000 75° East 540 621 36,000  Level Gander Center
09:14PM 45.7333 -51.4667 73° East 540 621 36,000  Level Moncton Center
09:15PM 45.7667 -51.2333 78° East 540 621 36,000  Level Moncton Center
09:15PM 45.8000 -51.0667 74° East 530 610 36,000  Level Gander Center
09:16PM 45.8333 -50.8667 76° East 540 621 36,000  Level Gander Center
09:17PM 45.8833 -50.6500 72° East 540 621 36,000  Level Gander Center
09:18PM 45.9000 -50.4500 83° East 540 621 36,000  Level Gander Center
09:19PM 45.9333 -50.2500 76° East 540 621 36,000  Level Gander Center
09:20PM 45.9667 -50.0167 78° East 540 621 36,000  Level Gander Center
09:21PM 46.0000 -50.0000 70° East 543 625 36,000  Level ETMS Enhanced Traffic Management System
09:21PM 46.0167 -49.8167 70° East 530 610 36,000  Level Gander Center
09:25PM 46.1155 -49.4359 69° East  Level FlightAware Approximate
09:32PM 46.4563 -48.0695 71° East  Level FlightAware Approximate
09:33PM 46.5026 -47.8723 71° East  Level FlightAware Approximate
09:34PM 46.5486 -47.6749 71° East  Level FlightAware Approximate
09:35PM 46.5942 -47.4771 71° East  Level FlightAware Approximate
09:36PM 46.6395 -47.2790 72° East  Level FlightAware Approximate
09:37PM 46.6845 -47.0806 72° East  Level FlightAware Approximate
09:38PM 46.7291 -46.8818 72° East  Level FlightAware Approximate
09:39PM 46.7733 -46.6827 72° East  Level FlightAware Approximate
09:40PM 46.8173 -46.4833 72° East  Level FlightAware Approximate
09:41PM 46.8606 -46.2834 73° East  Level FlightAware Approximate
09:42PM 46.9031 -46.0830 73° East  Level FlightAware Approximate
09:43PM 46.9453 -45.8823 73° East  Level FlightAware Approximate
09:44PM 46.9871 -45.6812 73° East  Level FlightAware Approximate
09:45PM 47.0285 -45.4799 73° East  Level FlightAware Approximate
09:46PM 47.0696 -45.2782 73° East  Level FlightAware Approximate
09:47PM 47.1103 -45.0762 73° East  Level FlightAware Approximate
09:48PM 47.1507 -44.8740 74° East  Level FlightAware Approximate
09:49PM 47.1907 -44.6714 74° East  Level FlightAware Approximate
09:50PM 47.2303 -44.4685 74° East  Level FlightAware Approximate
09:51PM 47.2696 -44.2653 74° East  Level FlightAware Approximate
09:52PM 47.3086 -44.0618 74° East  Level FlightAware Approximate
09:53PM 47.3471 -43.8580 74° East  Level FlightAware Approximate
09:54PM 47.3854 -43.6539 74° East  Level FlightAware Approximate
09:55PM 47.4232 -43.4495 75° East  Level FlightAware Approximate
09:56PM 47.4607 -43.2448 75° East  Level FlightAware Approximate
09:57PM 47.4978 -43.0398 75° East  Level FlightAware Approximate
09:58PM 47.5346 -42.8346 75° East  Level FlightAware Approximate
09:59PM 47.5710 -42.6290 75° East  Level FlightAware Approximate
10:00PM 47.6070 -42.4232 75° East  Level FlightAware Approximate
10:01PM 47.6426 -42.2171 76° East  Level FlightAware Approximate
10:02PM 47.6779 -42.0107 76° East  Level FlightAware Approximate
10:03PM 47.7128 -41.8040 76° East  Level FlightAware Approximate
10:04PM 47.7474 -41.5971 76° East  Level FlightAware Approximate
10:05PM 47.7815 -41.3899 76° East  Level FlightAware Approximate
10:06PM 47.8153 -41.1824 76° East  Level FlightAware Approximate
10:07PM 47.8488 -40.9746 76° East  Level FlightAware Approximate
10:08PM 47.8818 -40.7666 77° East  Level FlightAware Approximate
10:09PM 47.9145 -40.5583 77° East  Level FlightAware Approximate
10:10PM 47.9468 -40.3497 77° East  Level FlightAware Approximate
10:10PM 48.0000 -40.0000 78° East 535 616 36,000  Level ETMS Enhanced Traffic Management System
10:11PM 47.9787 -40.1409 77° East  Level FlightAware Approximate
10:12PM 48.0099 -39.9318 78° East  Level FlightAware Approximate
10:13PM 48.0402 -39.7222 78° East  Level FlightAware Approximate
10:14PM 48.0701 -39.5123 78° East  Level FlightAware Approximate
10:15PM 48.0996 -39.3022 78° East  Level FlightAware Approximate
10:16PM 48.2406 -38.2535 79° East 535 616 36,000  Level FlightAware Transoceanic
10:17PM 48.2688 -38.0341 79° East 535 616 36,000  Level FlightAware Transoceanic
10:18PM 48.2966 -37.8144 79° East 535 616 36,000  Level FlightAware Transoceanic
10:19PM 48.3240 -37.5945 79° East 535 616 36,000  Level FlightAware Transoceanic
10:20PM 48.3509 -37.3744 80° East 535 616 36,000  Level FlightAware Transoceanic
10:21PM 48.3774 -37.1540 80° East 535 616 36,000  Level FlightAware Transoceanic
10:22PM 48.4036 -36.9334 80° East 535 616 36,000  Level FlightAware Transoceanic
10:23PM 48.4292 -36.7125 80° East 535 616 36,000  Level FlightAware Transoceanic
10:24PM 48.4545 -36.4915 80° East 535 616 36,000  Level FlightAware Transoceanic
10:25PM 48.4794 -36.2702 80° East 535 616 36,000  Level FlightAware Transoceanic
10:26PM 48.5038 -36.0487 81° East 535 616 36,000  Level FlightAware Transoceanic
10:27PM 48.5278 -35.8270 81° East 535 616 36,000  Level FlightAware Transoceanic
10:28PM 48.5513 -35.6051 81° East 535 616 36,000  Level FlightAware Transoceanic
10:29PM 48.5745 -35.3830 81° East 535 616 36,000  Level FlightAware Transoceanic
10:30PM 48.5972 -35.1607 81° East 535 616 36,000  Level FlightAware Transoceanic
10:31PM 48.6195 -34.9382 81° East 535 616 36,000  Level FlightAware Transoceanic
10:32PM 48.6413 -34.7155 82° East 535 616 36,000  Level FlightAware Transoceanic
10:33PM 48.6627 -34.4926 82° East 535 616 36,000  Level FlightAware Transoceanic
10:34PM 48.6837 -34.2695 82° East 535 616 36,000  Level FlightAware Transoceanic
10:35PM 48.7043 -34.0462 82° East 535 616 36,000  Level FlightAware Transoceanic
10:36PM 48.7244 -33.8228 82° East 535 616 36,000  Level FlightAware Transoceanic
10:37PM 48.7441 -33.5991 82° East 535 616 36,000  Level FlightAware Transoceanic
10:38PM 48.7634 -33.3753 83° East 535 616 36,000  Level FlightAware Transoceanic
10:39PM 48.7822 -33.1513 83° East 535 616 36,000  Level FlightAware Transoceanic
10:40PM 48.8006 -32.9272 83° East 535 616 36,000  Level FlightAware Transoceanic
10:41PM 48.8186 -32.7029 83° East 535 616 36,000  Level FlightAware Transoceanic
10:42PM 48.8361 -32.4785 83° East 535 616 36,000  Level FlightAware Transoceanic
10:43PM 48.8532 -32.2538 83° East 535 616 36,000  Level FlightAware Transoceanic
10:44PM 48.8699 -32.0291 84° East 535 616 36,000  Level FlightAware Transoceanic
10:45PM 48.8861 -31.8042 84° East 535 616 36,000  Level FlightAware Transoceanic
10:46PM 48.9018 -31.5791 84° East 535 616 36,000  Level FlightAware Transoceanic
10:47PM 48.9172 -31.3539 84° East 535 616 36,000  Level FlightAware Transoceanic
10:48PM 48.9321 -31.1286 84° East 535 616 36,000  Level FlightAware Transoceanic
10:49PM 48.9465 -30.9031 85° East 535 616 36,000  Level FlightAware Transoceanic
10:50PM 48.9606 -30.6775 85° East 535 616 36,000  Level FlightAware Transoceanic
10:51PM 48.9742 -30.4518 85° East 535 616 36,000  Level FlightAware Transoceanic
10:52PM 48.9873 -30.2260 85° East 535 616 36,000  Level FlightAware Transoceanic
10:53PM 48.9995 -30.0082 85° East  Level FlightAware Approximate
10:54PM 49.0113 -29.7903 85° East  Level FlightAware Approximate
10:55PM 49.0281 -29.8023 78° East  Level FlightAware Approximate
10:56PM 49.0580 -29.5884 78° East  Level FlightAware Approximate
10:56PM 49.0000 -30.0000 77° East 502 578 36,000  Level ETMS Enhanced Traffic Management System
10:57PM 49.0876 -29.3741 78° East  Level FlightAware Approximate
10:58PM 49.1167 -29.1602 78° East  Level FlightAware Approximate
10:59PM 49.1454 -28.9460 78° East  Level FlightAware Approximate
11:00PM 49.1737 -28.7315 79° East  Level FlightAware Approximate
11:01PM 49.2016 -28.5168 79° East  Level FlightAware Approximate
11:02PM 49.2291 -28.3019 79° East  Level FlightAware Approximate
11:03PM 49.2577 -28.1193 79° East 502 578 36,000  Level FlightAware Transoceanic
11:04PM 49.2845 -27.9092 79° East 502 578 36,000  Level FlightAware Transoceanic
11:05PM 49.3108 -27.6988 79° East 502 578 36,000  Level FlightAware Transoceanic
11:06PM 49.3368 -27.4882 79° East 502 578 36,000  Level FlightAware Transoceanic
11:07PM 49.3624 -27.2774 80° East 502 578 36,000  Level FlightAware Transoceanic
11:08PM 49.3876 -27.0664 80° East 502 578 36,000  Level FlightAware Transoceanic
11:09PM 49.4124 -26.8551 80° East 502 578 36,000  Level FlightAware Transoceanic
11:10PM 49.4369 -26.6437 80° East 502 578 36,000  Level FlightAware Transoceanic
11:11PM 49.4609 -26.4320 80° East 502 578 36,000  Level FlightAware Transoceanic
11:12PM 49.4846 -26.2201 80° East 502 578 36,000  Level FlightAware Transoceanic
11:13PM 49.5079 -26.0080 80° East 502 578 36,000  Level FlightAware Transoceanic
11:14PM 49.5308 -25.7957 81° East 502 578 36,000  Level FlightAware Transoceanic
11:15PM 49.5533 -25.5833 81° East 502 578 36,000  Level FlightAware Transoceanic
11:16PM 49.5754 -25.3706 81° East 502 578 36,000  Level FlightAware Transoceanic
11:17PM 49.5971 -25.1577 81° East 502 578 36,000  Level FlightAware Transoceanic
11:18PM 49.6185 -24.9447 81° East 502 578 36,000  Level FlightAware Transoceanic
11:19PM 49.6394 -24.7314 81° East 502 578 36,000  Level FlightAware Transoceanic
11:20PM 49.6600 -24.5180 82° East 502 578 36,000  Level FlightAware Transoceanic
11:21PM 49.6801 -24.3044 82° East 502 578 36,000  Level FlightAware Transoceanic
11:22PM 49.6999 -24.0907 82° East 502 578 36,000  Level FlightAware Transoceanic
11:23PM 49.7192 -23.8767 82° East 502 578 36,000  Level FlightAware Transoceanic
11:24PM 49.7382 -23.6626 82° East 502 578 36,000  Level FlightAware Transoceanic
11:25PM 49.7568 -23.4483 82° East 502 578 36,000  Level FlightAware Transoceanic
11:26PM 49.7750 -23.2339 83° East 502 578 36,000  Level FlightAware Transoceanic
11:27PM 49.7928 -23.0193 83° East 502 578 36,000  Level FlightAware Transoceanic
11:28PM 49.8102 -22.8045 83° East 502 578 36,000  Level FlightAware Transoceanic
11:29PM 49.8272 -22.5896 83° East 502 578 36,000  Level FlightAware Transoceanic
11:30PM 49.8438 -22.3745 83° East 502 578 36,000  Level FlightAware Transoceanic
11:31PM 49.8600 -22.1593 83° East 502 578 36,000  Level FlightAware Transoceanic
11:32PM 49.8758 -21.9440 84° East 502 578 36,000  Level FlightAware Transoceanic
11:33PM 49.8912 -21.7285 84° East 502 578 36,000  Level FlightAware Transoceanic
11:34PM 49.9062 -21.5129 84° East 502 578 36,000  Level FlightAware Transoceanic
11:35PM 49.9208 -21.2971 84° East 502 578 36,000  Level FlightAware Transoceanic
11:36PM 49.9350 -21.0812 84° East 502 578 36,000  Level FlightAware Transoceanic
11:37PM 49.9488 -20.8652 84° East 502 578 36,000  Level FlightAware Transoceanic
11:38PM 49.9622 -20.6491 85° East 502 578 36,000  Level FlightAware Transoceanic
11:39PM 49.9752 -20.4328 85° East 502 578 36,000  Level FlightAware Transoceanic
11:40PM 49.9878 -20.2165 85° East 502 578 36,000 -60 Level FlightAware Transoceanic
11:41PM 50.0003 -19.9948 85° East  Level FlightAware Approximate
11:42PM 50.0001 -19.9895 89° East  Level FlightAware Approximate
11:43PM 50.0022 -19.7669 89° East  Level FlightAware Approximate
11:44PM 50.0038 -19.5444 89° East  Level FlightAware Approximate
11:45PM 50.0050 -19.3218 89° East  Level FlightAware Approximate
11:46PM 50.0057 -19.0997 90° East  Level FlightAware Approximate
11:47PM 50.0061 -18.8776 90° East  Level FlightAware Approximate
11:48PM 50.0060 -18.6556 90° East  Level FlightAware Approximate
11:49PM 50.0055 -18.4335 90° East  Level FlightAware Approximate
11:50PM 50.0045 -18.2114 90° East  Level FlightAware Approximate
11:51PM 50.0032 -17.9894 90° East  Level FlightAware Approximate
11:52PM 50.0014 -17.7673 91° East  Level FlightAware Approximate
11:53PM 49.9992 -17.5453 91° East  Level FlightAware Approximate
11:54PM 49.9965 -17.3233 91° East  Level FlightAware Approximate
11:55PM 49.9935 -17.1014 91° East  Level FlightAware Approximate
11:56PM 49.9900 -16.8794 91° East  Level FlightAware Approximate
11:57PM 49.9861 -16.6575 91° East  Level FlightAware Approximate
11:58PM 49.9818 -16.4357 92° East  Level FlightAware Approximate
11:59PM 49.9771 -16.2138 92° East  Level FlightAware Approximate
12:00AM 49.9719 -15.9921 92° East  Level FlightAware Approximate
12:01AM 49.9663 -15.7703 92° East  Level FlightAware Approximate
12:02AM 49.9603 -15.5486 92° East  Level FlightAware Approximate
12:03AM 49.9538 -15.3270 92° East  Level FlightAware Approximate
12:04AM 49.9470 -15.1055 93° East  Level FlightAware Approximate
12:05AM 49.9397 -14.8840 93° East  Level FlightAware Approximate
12:06AM 49.9320 -14.6626 93° East  Level FlightAware Approximate
12:07AM 49.9239 -14.4412 93° East  Level FlightAware Approximate
12:08AM 49.9153 -14.2199 93° East  Level FlightAware Approximate
12:09AM 49.9064 -13.9987 94° East  Level FlightAware Approximate
12:10AM 49.8970 -13.7776 94° East  Level FlightAware Approximate
12:11AM 49.8872 -13.5566 94° East  Level FlightAware Approximate
12:12AM 49.8769 -13.3357 94° East  Level FlightAware Approximate
12:13AM 49.8663 -13.1149 94° East  Level FlightAware Approximate
12:14AM 49.8553 -12.8941 94° East  Level FlightAware Approximate
12:15AM 49.8438 -12.6735 95° East  Level FlightAware Approximate
12:16AM 49.8319 -12.4530 95° East  Level FlightAware Approximate
12:17AM 49.8195 -12.2325 95° East  Level FlightAware Approximate
12:18AM 49.8068 -12.0122 95° East  Level FlightAware Approximate
12:19AM 49.7937 -11.7921 95° East  Level FlightAware Approximate
12:20AM 49.7801 -11.5720 95° East  Level FlightAware Approximate
12:21AM 49.7661 -11.3521 96° East  Level FlightAware Approximate
12:22AM 49.7517 -11.1322 96° East  Level FlightAware Approximate
12:23AM 49.7369 -10.9126 96° East  Level FlightAware Approximate
12:24AM 49.7216 -10.6930 96° East  Level FlightAware Approximate
12:25AM 49.7060 -10.4736 96° East  Level FlightAware Approximate
12:26AM 49.6899 -10.2544 96° East  Level FlightAware Approximate
12:27AM 49.6735 -10.0353 97° East  Level FlightAware Approximate
12:28AM 49.6566 -9.8163 97° East  Level FlightAware Approximate
12:29AM 49.6393 -9.5975 97° East  Level FlightAware Approximate
12:30AM 49.6215 -9.3788 97° East  Level FlightAware Approximate
12:31AM 49.6034 -9.1603 97° East  Level FlightAware Approximate
12:32AM 49.5849 -8.9420 97° East  Level FlightAware Approximate
12:33AM 49.5659 -8.7239 98° East  Level FlightAware Approximate
12:34AM 49.5466 -8.5059 98° East  Level FlightAware Approximate
12:34AM 49.6008 -8.9824 98° East 462 532 34,500  Level FlightAware UK
12:34AM 49.5950 -8.9213 98° East 462 532 34,500 4,980 Level FlightAware UK
12:34AM 49.5900 -8.9940 98° East 482 555 36,000  Climbing FlightAware
12:35AM 49.5890 -8.8604 98° East 462 532 34,500 -2,520 Descending FlightAware UK
12:35AM 49.5830 -8.7995 99° East 460 529 34,500  Level FlightAware UK
12:35AM 49.5769 -8.7389 99° East 458 527 34,500 4,680 Level FlightAware UK
12:35AM 49.5740 -8.8240 99° East 481 554 36,000  Climbing FlightAware
12:35AM 49.5708 -8.6784 99° East 458 527 34,500 -2,580 Descending FlightAware UK
12:36AM 49.5646 -8.6179 99° East 458 527 34,500  Level FlightAware UK
12:36AM 49.5583 -8.5575 99° East 460 529 34,500  Level FlightAware UK
12:36AM 49.5519 -8.4971 99° East 458 527 34,500 2,760 Level FlightAware UK
12:37AM 49.5430 -8.5230 99° East 478 550 36,000  Climbing FlightAware
12:37AM 49.5455 -8.4366 99° East 456 525 34,500 -5,640 Descending FlightAware UK
12:37AM 49.5413 -8.3963 99° East 456 525 34,500  Level FlightAware UK
12:37AM 49.5349 -8.3360 99° East 1 1 34,500  Level FlightAware UK
12:37AM 49.5285 -8.2755 99° East 1 1 34,500  Level FlightAware UK
12:38AM 49.5222 -8.2151 99° East 1 1 34,500 4,980 Level FlightAware UK
12:38AM 49.5190 -8.2850 99° East 477 549 36,000  Climbing FlightAware
12:38AM 49.5160 -8.1547 99° East 456 525 34,500 -2,520 Descending FlightAware UK
12:38AM 49.5096 -8.0944 99° East 458 527 34,500  Level FlightAware UK
12:39AM 49.5031 -8.0334 99° East 456 525 34,500  Level FlightAware UK
12:39AM 49.4977 -7.9727 98° East 458 527 34,500 2,880 Level FlightAware UK
12:39AM 49.4940 -8.0000 98° East 490 564 36,000  Climbing FlightAware
12:39AM 49.4961 -7.8670 98° East 456 525 34,500 -2,580 Descending FlightAware UK
12:40AM 49.4944 -7.8037 92° East 458 527 34,500  Level FlightAware UK
12:40AM 49.4931 -7.7403 92° East 456 525 34,500 2,520 Level FlightAware UK
12:40AM 49.4890 -7.7530 91° East 495 570 36,000  Climbing FlightAware
12:40AM 49.4920 -7.6769 91° East 454 522 34,500 -4,740 Descending FlightAware UK
12:41AM 49.4895 -7.6145 91° East 456 525 34,500  Level FlightAware UK
12:41AM 49.4853 -7.5520 96° East 456 525 34,500 4,260 Level FlightAware UK
12:41AM 49.4820 -7.6090 96° East 491 565 36,000  Climbing FlightAware
12:41AM 49.4813 -7.4897 96° East 456 525 34,500 -2,760 Descending FlightAware UK
12:42AM 49.4776 -7.4265 95° East 454 522 34,500 3,600 Level FlightAware UK
12:42AM 49.4750 -7.4710 95° East 492 566 36,000  Climbing FlightAware
12:42AM 49.4729 -7.3431 95° East 456 525 34,500 -2,580 Descending FlightAware UK
12:42AM 49.4695 -7.2803 95° East 458 527 34,500 3,180 Level FlightAware UK
12:42AM 49.4670 -7.3140 95° East 494 568 36,000  Climbing FlightAware
12:43AM 49.4642 -7.1764 95° East 456 525 34,500 -2,400 Descending FlightAware UK
12:43AM 49.4610 -7.1127 94° East 458 527 34,500 4,500 Level FlightAware UK
12:43AM 49.4600 -7.1760 94° East 494 568 36,000  Climbing FlightAware
12:43AM 49.4577 -7.0499 94° East 458 527 34,500 -2,700 Descending FlightAware UK
12:44AM 49.4543 -6.9870 95° East 458 527 34,500 3,060 Level FlightAware UK
12:44AM 49.4520 -7.0170 95° East 494 568 36,000  Climbing FlightAware
12:44AM 49.4485 -6.8823 95° East 458 527 34,500 -2,460 Descending FlightAware UK
12:44AM 49.4450 -6.8195 95° East 458 527 34,500 4,260 Level FlightAware UK
12:44AM 49.4450 -6.8790 95° East 493 567 36,000  Climbing FlightAware
12:45AM 49.4414 -6.7568 95° East 454 522 34,500 -2,760 Descending FlightAware UK
12:45AM 49.4378 -6.6935 95° East 456 525 34,500 3,000 Level FlightAware UK
12:45AM 49.4360 -6.7190 95° East 493 567 36,000  Climbing FlightAware
12:46AM 49.4321 -6.5892 95° East 460 529 34,500 -2,520 Descending FlightAware UK
12:46AM 49.4286 -6.5266 95° East 460 529 34,500 4,080 Level FlightAware UK
12:46AM 49.4290 -6.5810 95° East 493 567 36,000  Climbing FlightAware
12:46AM 49.4237 -6.4433 95° East 460 529 34,500 -2,400 Descending FlightAware UK
12:47AM 49.4199 -6.3808 95° East 458 527 34,500 4,500 Level FlightAware UK
12:47AM 49.4200 -6.4390 95° East 492 566 36,000  Climbing FlightAware
12:47AM 49.4160 -6.3183 95° East 456 525 34,500 -2,700 Descending FlightAware UK
12:47AM 49.4122 -6.2558 95° East 456 525 34,500 3,060 Level FlightAware UK
12:47AM 49.4120 -6.2850 95° East 493 567 36,000  Climbing FlightAware
12:48AM 49.4057 -6.1515 95° East 456 525 34,500 -2,460 Descending FlightAware UK
12:48AM 49.4020 -6.0887 95° East 454 522 34,500 4,260 Level FlightAware UK
12:48AM 49.4030 -6.1470 95° East 495 570 36,000  Climbing FlightAware
12:48AM 49.3980 -6.0260 95° East 454 522 34,500 -2,760 Descending FlightAware UK
12:49AM 49.3938 -5.9632 96° East 454 522 34,500 3,000 Level FlightAware UK
12:49AM 49.3930 -5.9880 96° East 496 571 36,000  Climbing FlightAware
12:49AM 49.3865 -5.8584 96° East 454 522 34,500 -2,520 Descending FlightAware UK
12:49AM 49.3821 -5.7956 96° East 454 522 34,500 4,080 Level FlightAware UK
12:49AM 49.3840 -5.8490 96° East 497 572 36,000  Climbing FlightAware
12:50AM 49.3772 -5.7112 96° East 452 520 34,500 -2,400 Descending FlightAware UK
12:50AM 49.3729 -5.6473 96° East 452 520 34,500 4,500 Level FlightAware UK
12:50AM 49.3750 -5.7070 96° East 500 575 36,000  Climbing FlightAware
12:50AM 49.3687 -5.5840 96° East 454 522 34,500 -2,700 Descending FlightAware UK
12:51AM 49.3646 -5.5205 96° East 454 522 34,500 3,060 Level FlightAware UK
12:51AM 49.3650 -5.5490 96° East 502 578 36,000  Climbing FlightAware
12:51AM 49.3574 -5.4145 96° East 456 525 34,500 -2,460 Descending FlightAware UK
12:51AM 49.3531 -5.3506 96° East 456 525 34,500 3,420 Level FlightAware UK
12:52AM 49.3550 -5.3910 96° East 503 579 36,000  Climbing FlightAware
12:52AM 49.3473 -5.2648 96° East 458 527 34,500 -2,700 Descending FlightAware UK
12:52AM 49.3429 -5.2017 96° East 458 527 34,500 3,900 Level FlightAware UK
12:52AM 49.3450 -5.2490 96° East 504 580 36,000  Climbing FlightAware
12:53AM 49.3369 -5.1166 96° East 462 532 34,500 -2,520 Descending FlightAware UK
12:53AM 49.3325 -5.0527 96° East 460 529 34,500 4,080 Level FlightAware UK
12:53AM 49.3350 -5.1080 96° East 503 579 36,000  Climbing FlightAware
12:53AM 49.3278 -4.9882 96° East 460 529 34,500 -2,820 Descending FlightAware UK
12:53AM 49.3232 -4.9252 96° East 458 527 34,500 3,000 Level FlightAware UK
12:54AM 49.3230 -4.9460 96° East 503 579 36,000  Climbing FlightAware
12:54AM 49.3151 -4.8191 96° East 460 529 34,500 -2,580 Descending FlightAware UK
12:54AM 49.3102 -4.7555 97° East 462 532 34,500 3,900 Level FlightAware UK
12:54AM 49.3130 -4.8060 97° East 502 578 36,000  Climbing FlightAware
12:55AM 49.3038 -4.6701 97° East 462 532 34,500 -2,400 Descending FlightAware UK
12:55AM 49.2990 -4.6066 97° East 464 534 34,500 4,500 Level FlightAware UK
12:55AM 49.3030 -4.6630 97° East 501 577 36,000  Climbing FlightAware
12:55AM 49.2943 -4.5439 97° East 466 536 34,500 -2,700 Descending FlightAware UK
12:56AM 49.2894 -4.4799 97° East 466 536 34,500 3,000 Level FlightAware UK
12:56AM 49.2900 -4.5060 97° East 498 573 36,000  Climbing FlightAware
12:56AM 49.2810 -4.3748 97° East 464 534 34,500 -2,460 Descending FlightAware UK
12:56AM 49.2759 -4.3119 97° East 460 529 34,500 4,260 Level FlightAware UK
12:56AM 49.2790 -4.3650 97° East 497 572 36,000  Climbing FlightAware
12:57AM 49.2708 -4.2492 97° East 460 529 34,500 -2,760 Descending FlightAware UK
12:57AM 49.2658 -4.1859 97° East 460 529 34,500 4,500 Level FlightAware UK
12:57AM 49.2700 -4.2410 97° East 496 571 36,000  Climbing FlightAware
12:57AM 49.2608 -4.1240 97° East 460 529 34,500 -2,700 Descending FlightAware UK
12:58AM 49.2558 -4.0609 97° East 460 529 34,500 2,640 Level FlightAware UK
12:58AM 49.2550 -4.0620 97° East 495 570 36,000  Climbing FlightAware
12:58AM 49.2508 -3.9976 97° East 458 527 34,500 -4,500 Descending FlightAware UK
12:58AM 49.2457 -3.9359 97° East 460 529 34,500  Level FlightAware UK
12:58AM 49.2404 -3.8727 97° East 458 527 34,500 4,500 Level FlightAware UK
12:58AM 49.2440 -3.9250 97° East 495 570 36,000  Climbing FlightAware
12:59AM 49.2354 -3.8102 97° East 458 527 34,500 -2,700 Descending FlightAware UK
12:59AM 49.2302 -3.7485 97° East 458 527 34,500 3,060 Level FlightAware UK
12:59AM 49.2320 -3.7800 97° East 495 570 36,000  Climbing FlightAware
01:00AM 49.2216 -3.6437 97° East 458 527 34,500 -2,460 Descending FlightAware UK
01:00AM 49.2164 -3.5811 97° East 458 527 34,500 4,260 Level FlightAware UK
01:00AM 49.2200 -3.6300 97° East 497 572 36,000  Climbing FlightAware
01:00AM 49.2113 -3.5185 97° East 458 527 34,500 -2,760 Descending FlightAware UK
01:00AM 49.2060 -3.4558 97° East 458 527 34,500 3,000 Level FlightAware UK
01:01AM 49.2070 -3.4750 97° East 499 574 36,000  Climbing FlightAware
01:01AM 49.1969 -3.3514 97° East 456 525 34,500 -2,520 Descending FlightAware UK
01:01AM 49.1914 -3.2879 98° East 458 527 34,500 4,080 Level FlightAware UK
01:01AM 49.1950 -3.3320 98° East 499 574 36,000  Climbing FlightAware
01:02AM 49.1839 -3.2041 98° East 458 527 34,500 -2,400 Descending FlightAware UK
01:02AM 49.1782 -3.1413 98° East 458 527 34,500 4,500 Level FlightAware UK
01:02AM 49.1830 -3.1960 98° East 498 573 36,000  Climbing FlightAware
01:02AM 49.1724 -3.0793 98° East 458 527 34,500 -2,700 Descending FlightAware UK
01:03AM 49.1667 -3.0159 98° East 458 527 34,500 3,060 Level FlightAware UK
01:03AM 49.1680 -3.0370 98° East 497 572 36,000  Climbing FlightAware
01:03AM 49.1568 -2.9116 98° East 458 527 34,500 -2,460 Descending FlightAware UK
01:03AM 49.1504 -2.8490 99° East 458 527 34,500 4,260 Level FlightAware UK
01:03AM 49.1550 -2.9020 99° East 496 571 36,000  Climbing FlightAware
01:04AM 49.1441 -2.7866 99° East 458 527 34,500 -2,760 Descending FlightAware UK
01:04AM 49.1381 -2.7243 98° East 456 525 34,500 4,500 Level FlightAware UK
01:04AM 49.1440 -2.7900 98° East 495 570 36,000  Climbing FlightAware
01:04AM 49.1323 -2.6622 98° East 456 525 34,500 -2,700 Descending FlightAware UK
01:05AM 49.1263 -2.6000 98° East 456 525 34,500 3,060 Level FlightAware UK
01:05AM 49.1280 -2.6260 98° East 496 571 36,000  Climbing FlightAware
01:05AM 49.1201 -2.5372 98° East 456 525 34,500 -4,740 Descending FlightAware UK
01:05AM 49.1161 -2.4963 98° East 456 525 34,500  Level FlightAware UK
01:05AM 49.1101 -2.4341 98° East 454 522 34,500 3,420 Level FlightAware UK
01:05AM 49.1130 -2.4690 98° East 497 572 36,000  Climbing FlightAware
01:06AM 49.1017 -2.3496 98° East 456 525 34,500 -2,700 Descending FlightAware UK
01:06AM 49.0958 -2.2882 98° East 454 522 34,500 3,180 Level FlightAware UK
01:06AM 49.0990 -2.3210 98° East 497 572 36,000  Climbing FlightAware
01:07AM 49.0856 -2.1847 98° East 456 525 34,500 -2,460 Descending FlightAware UK
01:07AM 49.0792 -2.1222 99° East 456 525 34,500 4,260 Level FlightAware UK
01:07AM 49.0830 -2.1660 99° East 497 572 36,000  Climbing FlightAware
01:07AM 49.0731 -2.0609 99° East 456 525 34,500 -2,700 Descending FlightAware UK
01:07AM 49.0668 -1.9973 99° East 454 522 34,500 3,600 Level FlightAware UK
01:08AM 49.0690 -2.0260 99° East 497 572 36,000  Climbing FlightAware
01:08AM 49.0584 -1.9135 99° East 454 522 34,500 -2,520 Descending FlightAware UK
01:08AM 49.0520 -1.8502 99° East 456 525 34,500 3,300 Level FlightAware UK
01:08AM 49.0540 -1.8760 99° East 497 572 36,000  Climbing FlightAware
01:09AM 49.0437 -1.7678 99° East 454 522 34,500 -2,760 Descending FlightAware UK
01:09AM 49.0373 -1.7047 99° East 454 522 34,500 3,600 Level FlightAware UK
01:09AM 49.0410 -1.7470 99° East 497 572 36,000  Climbing FlightAware
01:09AM 49.0287 -1.6219 99° East 456 525 34,500 -2,580 Descending FlightAware UK
01:10AM 49.0223 -1.5590 99° East 456 525 34,500 3,180 Level FlightAware UK
01:10AM 49.0230 -1.5770 99° East 499 574 36,000  Climbing FlightAware
01:10AM 49.0118 -1.4559 99° East 456 525 34,500 -2,400 Descending FlightAware UK
01:10AM 49.0050 -1.3931 99° East 458 527 34,500 4,500 Level FlightAware UK
01:10AM 49.0090 -1.4400 99° East 498 573 36,000  Climbing FlightAware
01:11AM 48.9982 -1.3310 99° East 460 529 34,500 -2,700 Descending FlightAware UK
01:11AM 48.9916 -1.2688 99° East 460 529 34,500 3,720 Level FlightAware UK
01:11AM 48.9940 -1.3040 99° East 497 572 36,000  Climbing FlightAware
01:11AM 48.9827 -1.1852 99° East 460 529 34,500 -2,520 Descending FlightAware UK
01:12AM 48.9759 -1.1238 100° East 460 529 34,500 4,080 Level FlightAware UK
01:12AM 48.9800 -1.1740 100° East 496 571 36,000  Climbing FlightAware
01:12AM 48.9668 -1.0404 100° East 458 527 34,500 -2,400 Descending FlightAware UK
01:12AM 48.9601 -0.9785 99° East 458 527 34,500 3,600 Level FlightAware UK
01:12AM 48.9620 -1.0120 99° East 496 571 36,000  Climbing FlightAware
01:13AM 48.9510 -0.8953 99° East 458 527 34,500 -2,580 Descending FlightAware UK
01:13AM 48.9443 -0.8342 99° East 456 525 34,500 3,300 Level FlightAware UK
01:13AM 48.9450 -0.8590 99° East 495 570 36,000  Climbing FlightAware
01:13AM 48.9350 -0.7511 99° East 456 525 34,500 -2,820 Descending FlightAware UK
01:14AM 48.9281 -0.6901 100° East 458 527 34,500 3,600 Level FlightAware UK
01:14AM 48.9300 -0.7240 100° East 498 573 36,000  Climbing FlightAware
01:14AM 48.9188 -0.6069 100° East 458 527 34,500 -2,700 Descending FlightAware UK
01:14AM 48.9119 -0.5457 100° East 458 527 34,500 3,180 Level FlightAware UK
01:15AM 48.9120 -0.5670 100° East 498 573 36,000  Climbing FlightAware
01:15AM 48.8999 -0.4402 100° East 458 527 34,500 -2,400 Descending FlightAware UK
01:15AM 48.8928 -0.3789 100° East 458 527 34,500 4,500 Level FlightAware UK
01:15AM 48.8960 -0.4280 100° East 498 573 36,000  Climbing FlightAware
01:16AM 48.8854 -0.3162 100° East 458 527 34,500 -2,700 Descending FlightAware UK
01:16AM 48.8782 -0.2541 100° East 458 527 34,500 3,720 Level FlightAware UK
01:16AM 48.8800 -0.2910 100° East 499 574 36,000  Climbing FlightAware
01:16AM 48.8685 -0.1714 100° East 460 529 34,500 -2,520 Descending FlightAware UK
01:17AM 48.8613 -0.1086 100° East 460 529 34,500 3,300 Level FlightAware UK
01:17AM 48.8620 -0.1330 100° East 500 575 36,000  Climbing FlightAware
01:17AM 48.8519 -0.0264 100° East 462 532 34,500 -2,760 Descending FlightAware UK
01:17AM 48.8448 0.0365 100° East 464 534 34,500 3,600 Level FlightAware UK
01:17AM 48.8470 0.0030 100° East 499 574 36,000  Climbing FlightAware
01:18AM 48.8354 0.1194 100° East 462 532 34,500 -2,580 Descending FlightAware UK
01:18AM 48.8283 0.1814 100° East 460 529 34,500 3,900 Level FlightAware UK
01:18AM 48.8310 0.1440 100° East 499 574 36,000  Climbing FlightAware
01:18AM 48.8202 0.2645 100° East 460 529 34,500 -2,460 Descending FlightAware UK
01:19AM 48.8153 0.3277 97° East 458 527 34,500 3,420 Level FlightAware UK
01:19AM 48.8180 0.2920 97° East 497 572 36,000  Climbing FlightAware
01:19AM 48.8078 0.4104 97° East 458 527 34,500 -2,580 Descending FlightAware UK
01:19AM 48.8020 0.4731 98° East 458 527 34,500 3,720 Level FlightAware UK
01:19AM 48.8050 0.4310 98° East 496 571 36,000  Climbing FlightAware
01:20AM 48.7941 0.5556 98° East 458 527 34,500 -2,460 Descending FlightAware UK
01:20AM 48.7881 0.6174 98° East 458 527 34,500 3,420 Level FlightAware UK
01:20AM 48.7900 0.5840 98° East 495 570 36,000  Climbing FlightAware
01:20AM 48.7796 0.7005 98° East 458 527 34,500 -2,700 Descending FlightAware UK
01:21AM 48.7733 0.7621 99° East 458 527 34,500 3,720 Level FlightAware UK
01:21AM 48.7760 0.7230 99° East 494 568 36,000  Climbing FlightAware
01:21AM 48.7648 0.8442 99° East 458 527 34,500 -2,520 Descending FlightAware UK
01:21AM 48.7583 0.9058 99° East 458 527 34,500 4,080 Level FlightAware UK
01:22AM 48.7620 0.8540 99° East 495 570 36,000  Climbing FlightAware
01:22AM 48.7496 0.9891 99° East 458 527 34,500 -2,400 Descending FlightAware UK
01:22AM 48.7433 1.0491 99° East 458 527 34,500 3,600 Level FlightAware UK
01:22AM 48.7450 1.0110 99° East 494 568 36,000  Climbing FlightAware
01:23AM 48.7345 1.1324 99° East 456 525 34,500 -2,580 Descending FlightAware UK
01:23AM 48.7280 1.1931 99° East 456 525 34,500 3,900 Level FlightAware UK
01:23AM 48.7310 1.1520 99° East 494 568 36,000  Climbing FlightAware
01:23AM 48.7190 1.2754 99° East 456 525 34,500 -2,460 Descending FlightAware UK
01:24AM 48.7124 1.3360 99° East 454 522 34,500 3,420 Level FlightAware UK
01:24AM 48.7140 1.3090 99° East 493 567 36,000  Climbing FlightAware
01:24AM 48.7032 1.4184 99° East 456 525 34,500 -2,700 Descending FlightAware UK
01:24AM 48.6963 1.4804 100° East 456 525 34,500 3,720 Level FlightAware UK
01:24AM 48.7000 1.4290 100° East 493 567 36,000  Climbing FlightAware
01:25AM 48.6872 1.5614 100° East 454 522 34,500 -2,520 Descending FlightAware UK
01:25AM 48.6802 1.6227 100° East 454 522 34,500 4,080 Level FlightAware UK
01:25AM 48.6830 1.5780 100° East 495 570 36,000  Climbing FlightAware
01:25AM 48.6707 1.7050 100° East 454 522 34,500 -2,400 Descending FlightAware UK
01:26AM 48.6636 1.7664 100° East 454 522 34,500 3,600 Level FlightAware UK
01:26AM 48.6670 1.7270 100° East 496 571 36,000  Climbing FlightAware
01:26AM 48.6541 1.8488 100° East 456 525 34,500 -2,580 Descending FlightAware UK
01:26AM 48.6472 1.9098 100° East 456 525 34,500 4,080 Level FlightAware UK
01:26AM 48.6510 1.8630 100° East 497 572 36,000  Climbing FlightAware
01:27AM 48.6376 1.9925 100° East 458 527 34,500 -2,400 Descending FlightAware UK
01:27AM 48.6308 2.0540 100° East 458 527 34,500 3,600 Level FlightAware UK
01:27AM 48.6340 2.0190 100° East 497 572 36,000  Climbing FlightAware
01:27AM 48.6219 2.1356 100° East 458 527 34,500 -2,580 Descending FlightAware UK
01:28AM 48.6151 2.1979 99° East 458 527 34,500 3,720 Level FlightAware UK
01:28AM 48.6190 2.1500 99° East 496 571 36,000 8,160 Climbing FlightAware
01:28AM 48.6157 2.1844 98° East 497 572 36,000  Level FlightAware ADS-B
01:29AM 48.5848 2.4594 100° East 497 572 36,000  Level FlightAware ADS-B
01:30AM 48.5720 2.5710 100° East 496 571 36,000  Level FlightAware
01:30AM 48.5639 2.6413 100° East 497 572 36,000  Level FlightAware ADS-B
01:31AM 48.5570 2.7300 97° East 497 572 36,000 -120 Level FlightAware
01:31AM 48.5511 2.8781 93° East 498 573 35,900 -720 Descending FlightAware ADS-B
01:32AM 48.5470 3.0140 93° East 498 573 35,100 -660 Descending FlightAware
01:33AM 48.5420 3.1620 93° East 489 563 35,000 -120 Descending FlightAware
01:33AM 48.5370 3.3060 93° East 490 564 35,000  Level FlightAware
01:34AM 48.5320 3.4490 93° East 490 564 35,000  Level FlightAware
01:35AM 48.5270 3.5940 93° East 483 556 35,000  Level FlightAware
01:36AM 48.5230 3.7210 93° East 479 551 35,000  Level FlightAware
01:36AM 48.5170 3.8810 93° East 478 550 35,000  Level FlightAware
01:37AM 48.5110 3.9580 97° East 480 552 35,000  Level FlightAware
01:38AM 48.4780 4.1320 106° East 481 554 35,000  Level FlightAware
01:38AM 48.4420 4.2810 110° East 483 556 35,000  Level FlightAware
01:39AM 48.4130 4.4040 110° East 481 554 35,000  Level FlightAware
01:40AM 48.3790 4.5460 110° East 479 551 35,000  Level FlightAware
01:40AM 48.3500 4.6700 109° East 479 551 35,000  Level FlightAware
01:41AM 48.3190 4.7990 110° East 478 550 35,000  Level FlightAware
01:42AM 48.2870 4.9340 110° East 477 549 35,000  Level FlightAware
01:42AM 48.2630 5.0380 109° East 479 551 35,000  Level FlightAware
01:43AM 48.2240 5.2000 110° East 482 555 35,000 -300 Level FlightAware
01:44AM 48.1930 5.3280 110° East 482 555 34,600 -1,020 Descending FlightAware
01:45AM 48.1590 5.4700 110° East 483 556 33,600 -1,440 Descending FlightAware
01:45AM 48.1300 5.5910 110° East 487 560 32,600 -1,440 Descending FlightAware
01:46AM 48.1000 5.7130 110° East 489 563 31,700 -1,200 Descending FlightAware
01:47AM 48.0680 5.8410 110° East 486 559 31,000 -1,080 Descending FlightAware
01:47AM 48.0400 5.9560 110° East 487 560 30,300 -1,380 Descending FlightAware
01:48AM 47.9970 6.1270 111° Southeast 489 563 29,000 -1,200 Descending FlightAware
01:49AM 47.9640 6.2560 111° Southeast 487 560 28,500 -1,680 Descending FlightAware
01:50AM 47.9310 6.3850 111° Southeast 482 555 26,800 -2,160 Descending FlightAware
01:50AM 47.8990 6.5130 110° East 430 495 25,500 -1,800 Descending FlightAware
01:51AM 47.8710 6.6210 111° Southeast 379 436 24,300 -2,220 Descending FlightAware
01:52AM 47.8440 6.7270 111° Southeast 364 419 22,400 -2,520 Descending FlightAware
01:52AM 47.8200 6.8200 111° Southeast 349 402 20,800 -2,340 Descending FlightAware
01:53AM 47.7970 6.9080 111° Southeast 336 387 19,300 -1,320 Descending FlightAware
01:54AM 47.7710 7.0060 112° Southeast 342 394 19,000 -240 Descending FlightAware
01:54AM 47.7500 7.0870 111° Southeast 344 396 19,000  Level FlightAware
01:55AM 47.7260 7.1800 111° Southeast 341 392 19,000  Level FlightAware
01:56AM 47.7000 7.2810 111° Southeast 338 389 19,000 -480 Level FlightAware
01:57AM 47.6770 7.3690 111° Southeast 349 402 18,400 -1,200 Descending FlightAware
01:57AM 47.6510 7.4680 111° Southeast 342 394 17,300 -1,020 Descending FlightAware
01:58AM 47.6300 7.5560 109° East 325 374 17,000 -780 Descending FlightAware
01:59AM 47.6090 7.6490 108° East 319 367 16,200 -1,380 Descending FlightAware
01:59AM 47.5900 7.7350 108° East 317 365 15,100 -1,320 Descending FlightAware
02:00AM 47.5710 7.8140 110° East 304 350 14,500 -780 Descending FlightAware
02:01AM 47.5520 7.8980 109° East 279 321 14,000 -900 Descending FlightAware
02:01AM 47.5430 7.9440 106° East 271 312 13,500 -1,320 Descending FlightAware
02:02AM 47.5570 7.9900 66° East 253 291 12,800 -780 Descending FlightAware
02:04AM 47.4920 8.3565 102° East  Level FlightAware Approximate
02:05AM 47.4500 8.5333 113° Southeast  Level FlightAware Approximate
02:06AM 47.4647 8.5492 113° Southeast  Level Estimated
02:07AM 47.4647 8.5492 113° Southeast  Level Estimated
02:08AM 47.4647 8.5492 113° Southeast  Level Estimated
02:08AM 47.3390 8.4270 113° Southeast 248 285 8,300  Level FlightAware
02:09AM 47.3070 8.4550 149° Southeast 240 276 7,600 -1,380 Descending FlightAware
02:09AM 47.2930 8.4670 150° Southeast 246 283 7,300 -1,200 Descending FlightAware
02:09AM 47.2670 8.4890 150° Southeast 244 281 6,800 -1,020 Descending FlightAware
02:10AM 47.2390 8.5120 151° Southeast 227 261 6,400 -720 Descending FlightAware
02:10AM 47.2170 8.5420 137° Southeast 218 251 6,100 -720 Descending FlightAware
02:11AM 47.2160 8.5670 93° East 210 242 5,900 -600 Descending FlightAware
02:11AM 47.2180 8.6020 85° East 199 229 5,700 -300 Descending FlightAware
02:11AM 47.2200 8.6220 82° East 200 230 5,700  Level FlightAware
02:12AM 47.2300 8.6360 44° Northeast 195 224 5,700  Level FlightAware
02:12AM 47.2430 8.6390 North 195 224 5,700  Level FlightAware
02:12AM 47.2610 8.6380 358° North 196 226 5,700 -240 Level FlightAware
02:13AM 47.2880 8.6370 359° North 196 226 5,500 -540 Descending FlightAware
02:13AM 47.2960 8.6340 346° North 189 217 5,400 -1,200 Descending FlightAware
02:13AM 47.3250 8.6190 341° North 204 235 4,700 -1,440 Descending FlightAware
02:14AM 47.3430 8.6080 338° Northwest 207 238 4,200 -1,320 Descending FlightAware
02:14AM 47.3670 8.5910 334° Northwest 191 220 3,600 -1,140 Descending FlightAware
02:15AM 47.3870 8.5780 336° Northwest 176 203 3,200 -1,020 Descending FlightAware
02:15AM 47.4060 8.5650 335° Northwest 154 177 2,700 -1,080 Descending FlightAware
02:15AM 47.4170 8.5570 334° Northwest 154 177 2,400 -900 Descending FlightAware
02:16AM 47.4310 8.5470 334° Northwest 159 183 2,100 -840 Descending FlightAware
02:16AM 47.4450 8.5380 337° Northwest 157 181 1,800 -960 Descending FlightAware
02:17AM 47.4710 8.5200 335° Northwest 139 160 1,100 -600 Descending FlightAware
02:17AM 47.4880 8.5080 334° Northwest 131 151 1,000 -180 Descending FlightAware